Time;durP1;ratioP1;P1;durP2;ratioP2;P2;SDS_P1;SDS_P2;PMS_P1;PMS_P2;Temp;Humidity;BMP_temperature;BMP_pressure;BME280_temperature;BME280_humidity;BME280_pressure;Samples;Min_cycle;Max_cycle;Signal;HPM_P1;HPM_P2
2021/09/25 00:02:08;;;;;;;0.40;0.20;;;;;;;11.32;78.52;99356.43;1761479;80;21104;-60
2021/09/25 00:04:34;;;;;;;4.75;0.37;;;;;;;11.32;78.67;99365.77;1742834;80;21087;-59
2021/09/25 00:07:01;;;;;;;1.55;0.10;;;;;;;11.39;78.68;99369.70;1741556;80;21150;-60
2021/09/25 00:09:27;;;;;;;2.47;0.10;;;;;;;11.46;78.86;99375.28;1753385;80;21045;-59
2021/09/25 00:11:53;;;;;;;0.10;0.08;;;;;;;11.49;78.69;99383.39;1745120;80;21681;-60
2021/09/25 00:14:20;;;;;;;0.60;0.20;;;;;;;11.44;78.98;99388.55;1752599;80;21027;-61
2021/09/25 00:16:46;;;;;;;1.37;0.20;;;;;;;11.38;79.74;99382.23;1748821;80;21022;-61
2021/09/25 00:19:12;;;;;;;0.30;0.10;;;;;;;11.35;80.04;99389.33;1743829;80;21011;-59
2021/09/25 00:21:39;;;;;;;1.52;0.20;;;;;;;11.36;80.17;99381.63;1751906;80;21056;-60
2021/09/25 00:24:06;;;;;;;0.72;0.30;;;;;;;11.35;80.59;99379.98;1753386;80;21106;-60
2021/09/25 00:26:32;;;;;;;1.47;0.10;;;;;;;11.32;81.11;99381.77;1735870;80;21142;-59
2021/09/25 00:28:58;;;;;;;1.02;0.23;;;;;;;11.24;81.29;99377.48;1758354;80;21036;-58
2021/09/25 00:31:24;;;;;;;2.52;0.35;;;;;;;11.16;81.80;99374.29;1750840;80;21032;-59
2021/09/25 00:33:50;;;;;;;;;;;;;;;11.09;82.18;99365.82;1760460;80;21076;-59
2021/09/25 00:36:16;;;;;;;0.60;0.17;;;;;;;11.11;82.55;99376.25;1740157;80;20491;-59
2021/09/25 00:38:42;;;;;;;2.55;0.20;;;;;;;11.08;82.37;99384.17;1737419;80;21628;-59
2021/09/25 00:41:08;;;;;;;1.25;0.33;;;;;;;11.09;82.39;99393.83;1740699;80;21095;-58
2021/09/25 00:43:35;;;;;;;;;;;;;;;11.09;82.50;99395.16;1744701;80;21811;-58
2021/09/25 00:46:01;;;;;;;2.33;0.33;;;;;;;11.12;82.35;99402.42;1745316;80;20494;-60
2021/09/25 00:48:27;;;;;;;2.20;0.20;;;;;;;11.03;82.65;99402.66;1736033;80;21055;-60
2021/09/25 00:50:53;;;;;;;2.30;0.40;;;;;;;11.02;82.90;99402.87;1743789;80;21051;-59
2021/09/25 00:53:19;;;;;;;1.27;0.10;;;;;;;10.68;82.51;99348.91;1738637;80;21035;-59
2021/09/25 00:55:48;;;;;;;0.30;0.10;;;;;;;11.02;82.21;99412.20;1741250;80;21526;-59
2021/09/25 00:58:14;;;;;;;0.78;0.20;;;;;;;11.00;82.15;99401.78;1747800;80;21076;-59
2021/09/25 01:00:40;;;;;;;2.20;0.10;;;;;;;11.00;82.21;99404.94;1747449;80;21055;-59
2021/09/25 01:03:06;;;;;;;;;;;;;;;11.02;82.17;99409.53;1750646;80;21010;-59
2021/09/25 01:05:32;;;;;;;2.83;0.30;;;;;;;11.03;82.05;99421.33;1743625;80;20135;-60
2021/09/25 01:08:00;;;;;;;1.77;0.50;;;;;;;10.94;82.34;99410.61;1734106;80;21092;-58
2021/09/25 01:10:27;;;;;;;1.85;0.35;;;;;;;10.90;82.20;99414.21;1748166;80;21020;-59
2021/09/25 01:12:53;;;;;;;1.05;0.10;;;;;;;10.90;82.23;99416.06;1715826;82;21022;-59
2021/09/25 01:15:20;;;;;;;6.45;0.23;;;;;;;10.96;82.00;99420.54;1746373;80;21049;-60
2021/09/25 01:17:46;;;;;;;0.35;0.20;;;;;;;10.94;81.91;99418.60;1748783;80;21055;-59
2021/09/25 01:20:14;;;;;;;1.85;0.20;;;;;;;11.05;81.84;99431.27;1745140;80;21047;-60
2021/09/25 01:22:40;;;;;;;1.25;0.13;;;;;;;11.08;81.56;99432.18;1763549;79;21053;-60
2021/09/25 01:25:09;;;;;;;0.30;0.17;;;;;;;11.06;81.35;99428.10;1778562;80;21030;-60
2021/09/25 01:27:36;;;;;;;3.10;0.23;;;;;;;11.04;81.36;99428.31;1740729;80;21063;-60
2021/09/25 01:30:06;;;;;;;0.30;0.20;;;;;;;11.06;81.28;99428.91;1748194;80;21142;-59
2021/09/25 01:32:33;;;;;;;2.00;0.15;;;;;;;11.12;80.99;99423.77;1740038;80;21510;-59
2021/09/25 01:35:01;;;;;;;2.00;0.20;;;;;;;11.16;80.87;99423.63;1752782;80;21527;-59
2021/09/25 01:37:27;;;;;;;1.37;0.20;;;;;;;11.15;80.59;99421.48;1755659;80;21357;-60
2021/09/25 01:39:53;;;;;;;1.17;0.10;;;;;;;11.07;80.45;99421.20;1759459;80;21027;-59
2021/09/25 01:42:19;;;;;;;3.85;0.13;;;;;;;10.99;80.80;99429.45;1763673;80;21671;-60
2021/09/25 01:44:50;;;;;;;1.05;0.10;;;;;;;10.96;80.99;99428.54;1738505;80;21023;-59
2021/09/25 01:47:16;;;;;;;0.78;0.20;;;;;;;11.00;80.81;99440.44;1755146;80;21099;-59
2021/09/25 01:49:42;;;;;;;0.72;0.10;;;;;;;11.03;80.88;99445.33;1748598;80;21063;-58
2021/09/25 01:52:08;;;;;;;0.25;0.10;;;;;;;11.07;80.90;99451.05;1761177;80;21016;-59
2021/09/25 01:54:34;;;;;;;0.45;0.17;;;;;;;11.09;80.87;99459.16;1757198;80;21043;-59
2021/09/25 01:57:00;;;;;;;3.50;0.20;;;;;;;11.08;80.84;99452.19;1752943;80;21107;-59
2021/09/25 01:59:26;;;;;;;0.50;0.20;;;;;;;11.06;80.69;99455.58;1738424;80;21185;-60
2021/09/25 02:01:52;;;;;;;0.30;0.10;;;;;;;11.05;80.66;99460.59;1773869;80;21134;-60
2021/09/25 02:04:20;;;;;;;1.42;0.15;;;;;;;11.09;80.59;99467.16;1753707;80;21142;-57
2021/09/25 02:06:46;;;;;;;0.30;0.20;;;;;;;11.10;80.22;99468.78;1755803;80;21000;-59
2021/09/25 02:09:12;;;;;;;2.10;0.30;;;;;;;11.12;80.22;99482.44;1740126;80;21151;-59
2021/09/25 02:11:38;;;;;;;0.37;0.10;;;;;;;11.10;80.11;99484.78;1747494;80;21700;-60
2021/09/25 02:14:04;;;;;;;1.45;0.13;;;;;;;11.05;80.40;99493.93;1740691;81;20996;-60
2021/09/25 02:16:30;;;;;;;2.12;0.20;;;;;;;11.05;80.58;99503.27;1748432;80;21051;-61
2021/09/25 02:18:56;;;;;;;2.17;0.25;;;;;;;11.10;80.50;99511.98;1732923;81;21000;-60
2021/09/25 02:21:23;;;;;;;3.25;0.35;;;;;;;11.16;80.01;99504.98;1728932;81;21601;-60
2021/09/25 02:23:49;;;;;;;0.25;0.10;;;;;;;11.19;79.84;99511.20;1734329;80;21546;-61
2021/09/25 02:26:15;;;;;;;1.22;0.10;;;;;;;11.23;79.76;99505.25;1727654;82;21545;-60
2021/09/25 02:28:42;;;;;;;1.17;0.10;;;;;;;11.26;79.59;99516.00;1728439;81;21007;-61
2021/09/25 02:31:08;;;;;;;1.85;0.10;;;;;;;11.26;79.57;99518.66;1721959;81;22076;-61
2021/09/25 02:33:34;;;;;;;1.22;0.23;;;;;;;11.28;79.24;99520.11;1743208;80;21030;-61
2021/09/25 02:36:00;;;;;;;;;;;;;;;11.32;78.78;99517.84;1760657;80;21113;-61
2021/09/25 02:38:26;;;;;;;0.10;0.10;;;;;;;11.40;78.69;99522.10;1760707;80;20515;-61
2021/09/25 02:40:53;;;;;;;1.00;0.03;;;;;;;11.43;78.25;99523.83;1741682;80;21087;-62
2021/09/25 02:43:21;;;;;;;1.50;0.10;;;;;;;11.46;78.10;99530.05;1754567;80;21040;-61
2021/09/25 02:45:47;;;;;;;1.35;0.10;;;;;;;11.45;78.09;99531.11;1742183;80;21686;-62
2021/09/25 02:48:14;;;;;;;1.40;0.20;;;;;;;11.44;78.14;99535.31;1727890;81;21653;-62
2021/09/25 02:50:40;;;;;;;1.05;0.10;;;;;;;11.47;78.08;99539.71;1734955;81;21625;-61
2021/09/25 02:53:06;;;;;;;1.75;0.20;;;;;;;11.50;77.80;99545.94;1719451;81;20970;-61
2021/09/25 02:55:32;;;;;;;0.60;0.10;;;;;;;11.53;77.75;99543.87;1720245;81;21030;-62
2021/09/25 02:57:58;;;;;;;0.82;0.28;;;;;;;11.54;77.73;99554.34;1728152;81;21004;-61
2021/09/25 03:00:24;;;;;;;0.78;0.17;;;;;;;11.52;77.81;99564.94;1737639;80;21066;-61
2021/09/25 03:02:50;;;;;;;1.50;0.10;;;;;;;11.49;77.98;99569.67;1743363;80;21639;-62
2021/09/25 03:05:16;;;;;;;4.70;0.20;;;;;;;11.49;78.04;99568.34;1763533;80;21101;-63
2021/09/25 03:07:42;;;;;;;2.10;1.17;;;;;;;11.49;78.03;99571.00;1744561;80;21006;-63
2021/09/25 03:10:10;;;;;;;0.80;0.10;;;;;;;11.57;77.97;99579.80;1755026;80;21532;-62
2021/09/25 03:12:37;;;;;;;1.25;0.10;;;;;;;11.58;77.80;99591.58;1737416;80;21550;-63
2021/09/25 03:15:05;;;;;;;4.85;0.45;;;;;;;11.54;77.85;99594.89;1738487;81;21630;-61
2021/09/25 03:19:59;;;;;;;2.17;0.30;;;;;;;11.39;78.71;99601.31;1772114;78;23404;-61
2021/09/25 03:22:25;;;;;;;2.45;0.05;;;;;;;11.29;78.90;99609.77;1724535;80;21028;-61
2021/09/25 03:24:52;;;;;;;0.20;0.10;;;;;;;11.34;78.93;99604.31;1659017;84;21160;-62
2021/09/25 03:27:19;;;;;;;1.47;0.10;;;;;;;11.36;78.74;99602.25;1659737;84;21036;-61
2021/09/25 03:29:45;;;;;;;0.68;0.10;;;;;;;11.35;78.73;99608.11;1676881;84;21025;-62
2021/09/25 03:32:11;;;;;;;3.20;0.10;;;;;;;11.33;78.93;99617.36;1664670;84;21176;-61
2021/09/25 03:34:38;;;;;;;0.55;0.10;;;;;;;11.30;78.87;99615.42;1692327;82;21073;-62
2021/09/25 03:37:04;;;;;;;5.47;0.72;;;;;;;11.30;78.94;99622.59;1699390;82;21100;-61
2021/09/25 03:39:31;;;;;;;4.75;0.47;;;;;;;11.36;78.87;99626.26;1698579;82;21029;-61
2021/09/25 03:41:57;;;;;;;0.57;0.10;;;;;;;11.39;78.75;99626.66;1691301;82;21077;-62
2021/09/25 03:44:23;;;;;;;1.40;0.30;;;;;;;11.36;78.87;99627.59;1698206;82;21176;-62
2021/09/25 03:46:49;;;;;;;3.92;0.20;;;;;;;11.28;79.23;99640.66;1723563;81;21480;-61
2021/09/25 03:49:16;;;;;;;1.85;0.10;;;;;;;11.24;79.45;99647.44;1723670;81;21094;-60
2021/09/25 03:51:42;;;;;;;2.42;0.10;;;;;;;11.27;79.58;99651.03;1715856;81;21493;-60
2021/09/25 03:54:08;;;;;;;1.35;0.20;;;;;;;11.29;79.20;99643.12;1723355;81;21013;-59
2021/09/25 03:56:35;;;;;;;2.02;0.15;;;;;;;11.27;79.17;99649.18;1718801;81;20976;-60
2021/09/25 03:59:01;;;;;;;4.80;0.20;;;;;;;11.27;79.30;99662.52;1710353;81;21362;-60
2021/09/25 04:01:27;;;;;;;1.70;0.30;;;;;;;11.25;79.44;99659.77;1682042;81;22204;-61
2021/09/25 04:03:55;;;;;;;0.23;0.10;;;;;;;11.21;79.52;99660.70;1665810;84;21550;-61
2021/09/25 04:06:25;;;;;;;2.60;0.30;;;;;;;11.20;79.59;99664.38;1666935;85;21658;-60
2021/09/25 04:08:50;;;;;;;2.72;0.20;;;;;;;11.27;79.56;99662.52;1671925;84;21117;-61
2021/09/25 04:11:17;;;;;;;4.15;0.10;;;;;;;11.28;79.21;99663.33;1676299;84;21590;-61
2021/09/25 04:13:43;;;;;;;2.72;0.47;;;;;;;11.25;79.26;99677.11;1667173;84;21648;-60
2021/09/25 04:16:09;;;;;;;0.70;0.28;;;;;;;11.14;79.53;99686.56;1669024;84;21046;-62
2021/09/25 04:18:35;;;;;;;1.27;0.30;;;;;;;11.10;79.93;99683.48;1673114;84;21591;-61
2021/09/25 04:21:01;;;;;;;1.85;0.20;;;;;;;11.10;79.71;99695.48;1661702;85;21086;-61
2021/09/25 04:23:29;;;;;;;1.27;0.30;;;;;;;11.15;79.61;99694.88;1629431;86;21060;-61
2021/09/25 04:25:55;;;;;;;2.30;0.47;;;;;;;11.17;79.47;99686.16;1625114;86;21496;-60
2021/09/25 04:28:22;;;;;;;2.70;0.20;;;;;;;11.20;79.54;99688.38;1598192;87;21138;-61
2021/09/25 04:30:50;;;;;;;1.65;0.13;;;;;;;11.20;79.52;99697.72;1614484;87;21094;-61
2021/09/25 04:33:16;;;;;;;1.02;0.40;;;;;;;11.19;79.44;99694.77;1618620;86;21073;-60
2021/09/25 04:35:43;;;;;;;0.78;0.25;;;;;;;11.21;79.31;99696.71;1615250;88;21079;-61
2021/09/25 04:38:09;;;;;;;1.50;0.20;;;;;;;11.24;78.57;99701.61;1590617;88;21738;-62
2021/09/25 04:40:35;;;;;;;1.27;0.20;;;;;;;11.24;78.42;99707.47;1624244;87;21059;-62
2021/09/25 04:43:03;;;;;;;2.30;0.10;;;;;;;11.22;78.62;99695.66;1613897;87;21086;-62
2021/09/25 04:45:29;;;;;;;4.25;0.53;;;;;;;11.17;78.38;99706.16;1639379;85;21038;-62
2021/09/25 04:47:56;;;;;;;1.92;0.53;;;;;;;11.14;78.41;99707.09;1657928;85;21580;-60
2021/09/25 04:50:29;;;;;;;1.35;0.20;;;;;;;11.17;78.46;99715.98;1636540;87;21638;-61
2021/09/25 04:52:53;;;;;;;3.02;0.40;;;;;;;11.25;78.53;99718.45;1630485;86;21129;-61
2021/09/25 04:55:19;;;;;;;1.67;0.20;;;;;;;11.36;78.89;99721.82;1636543;84;21706;-63
2021/09/25 04:57:45;;;;;;;2.10;0.40;;;;;;;11.40;78.38;99724.38;1663190;84;21061;-60
2021/09/25 05:00:12;;;;;;;7.78;1.60;;;;;;;11.39;78.31;99731.25;1674920;84;21070;-60
2021/09/25 05:02:38;;;;;;;1.00;0.33;;;;;;;11.39;78.69;99736.59;1678430;84;21117;-60
2021/09/25 05:05:06;;;;;;;;;;;;;;;11.47;78.90;99741.69;1677699;84;21061;-62
2021/09/25 05:07:36;;;;;;;1.20;0.40;;;;;;;11.60;78.58;99751.52;1660479;84;20167;-62
2021/09/25 05:10:01;;;;;;;3.22;0.30;;;;;;;11.61;77.86;99755.32;1658200;84;21034;-62
2021/09/25 05:12:28;;;;;;;2.37;0.57;;;;;;;11.64;77.70;99773.59;1664045;84;21129;-56
2021/09/25 05:14:54;;;;;;;3.40;0.57;;;;;;;11.61;77.07;99771.86;1671119;84;21087;-59
2021/09/25 05:17:20;;;;;;;5.50;0.40;;;;;;;11.56;77.04;99771.66;1666456;84;21519;-54
2021/09/25 05:19:47;;;;;;;2.35;0.30;;;;;;;11.53;77.07;99779.58;1678074;84;21133;-63
2021/09/25 05:22:15;;;;;;;3.20;0.20;;;;;;;11.58;77.09;99785.61;1664459;84;21614;-59
2021/09/25 05:24:41;;;;;;;1.75;0.23;;;;;;;11.68;76.83;99791.36;1661621;85;21544;-60
2021/09/25 05:27:07;;;;;;;1.75;0.30;;;;;;;11.75;76.59;99794.00;1664807;85;21030;-59
2021/09/25 05:29:34;;;;;;;4.03;0.90;;;;;;;11.77;76.20;99792.78;1669084;84;21026;-59
2021/09/25 05:32:02;;;;;;;2.42;0.45;;;;;;;11.68;76.00;99793.50;1655597;85;21130;-58
2021/09/25 05:34:29;;;;;;;2.10;0.20;;;;;;;11.63;76.28;99798.64;1685758;84;21149;-55
2021/09/25 05:36:57;;;;;;;1.60;0.20;;;;;;;11.62;76.23;99797.51;1693841;83;21058;-55
2021/09/25 05:39:24;;;;;;;0.82;0.30;;;;;;;11.64;75.95;99803.45;1664744;85;21142;-54
2021/09/25 05:41:51;;;;;;;1.25;0.30;;;;;;;11.67;75.54;99808.39;1657531;85;21592;-56
2021/09/25 05:44:18;;;;;;;1.57;0.30;;;;;;;11.68;75.66;99812.72;1651354;85;21251;-55
2021/09/25 05:46:44;;;;;;;3.02;0.23;;;;;;;11.64;75.72;99802.13;1631430;86;21042;-55
2021/09/25 05:49:10;;;;;;;1.62;0.10;;;;;;;11.59;75.26;99817.96;1636955;85;21656;-52
2021/09/25 05:51:37;;;;;;;2.12;0.10;;;;;;;11.59;75.00;99820.11;1659778;84;21583;-52
2021/09/25 05:54:03;;;;;;;0.47;0.30;;;;;;;11.65;75.01;99825.13;1676651;84;21649;-50
2021/09/25 05:56:29;;;;;;;0.70;0.20;;;;;;;11.72;75.04;99830.47;1656481;85;21109;-50
2021/09/25 05:58:55;;;;;;;0.98;0.20;;;;;;;11.75;74.86;99828.70;1643988;85;21137;-52
2021/09/25 06:01:21;;;;;;;0.90;0.15;;;;;;;11.73;75.02;99834.77;1649305;85;21022;-53
2021/09/25 06:03:47;;;;;;;0.10;0.10;;;;;;;11.70;74.73;99842.69;1631536;85;21076;-54
2021/09/25 06:06:13;;;;;;;1.00;0.13;;;;;;;11.66;74.99;99846.28;1636638;85;21021;-53
2021/09/25 06:08:39;;;;;;;0.20;0.10;;;;;;;11.64;74.44;99852.34;1652845;85;21391;-53
2021/09/25 06:11:05;;;;;;;0.53;0.20;;;;;;;11.64;74.76;99852.34;1698214;83;21001;-52
2021/09/25 06:13:31;;;;;;;4.47;0.10;;;;;;;11.68;74.81;99852.76;1694517;83;20984;-52
2021/09/25 06:15:57;;;;;;;2.02;0.10;;;;;;;11.69;74.80;99853.05;1692389;83;21507;-52
2021/09/25 06:18:23;;;;;;;1.00;0.10;;;;;;;11.66;74.70;99858.82;1695747;83;21052;-52
2021/09/25 06:20:50;;;;;;;0.40;0.10;;;;;;;11.67;74.58;99873.80;1697809;83;21209;-58
2021/09/25 06:23:16;;;;;;;;;;;;;;;11.66;74.20;99866.83;1701300;83;21675;-53
2021/09/25 06:25:42;;;;;;;0.40;0.20;;;;;;;11.68;74.50;99870.92;1696375;83;20104;-54
2021/09/25 06:28:08;;;;;;;1.80;0.37;;;;;;;11.70;74.27;99870.72;1700780;84;21139;-54
2021/09/25 06:30:40;;;;;;;1.50;0.20;;;;;;;11.72;73.96;99871.34;1696298;83;21543;-56
2021/09/25 06:33:02;;;;;;;7.08;0.30;;;;;;;11.70;73.77;99878.73;1684994;84;20986;-55
2021/09/25 06:35:29;;;;;;;0.93;0.10;;;;;;;11.68;73.61;99876.78;1633930;86;21197;-56
2021/09/25 06:37:55;;;;;;;0.28;0.28;;;;;;;11.64;73.76;99880.38;1630311;86;21181;-54
2021/09/25 06:40:22;;;;;;;4.87;0.45;;;;;;;11.66;74.35;99888.19;1646232;87;21639;-57
2021/09/25 06:42:49;;;;;;;2.05;0.57;;;;;;;11.74;73.74;99885.81;1630576;87;21807;-56
2021/09/25 06:45:15;;;;;;;0.72;0.37;;;;;;;11.77;73.58;99892.91;1625854;87;21077;-55
2021/09/25 06:47:41;;;;;;;0.13;0.10;;;;;;;11.81;73.52;99897.29;1614865;87;21081;-54
2021/09/25 06:50:10;;;;;;;4.25;0.35;;;;;;;11.81;73.42;99904.80;1603142;87;21087;-55
2021/09/25 06:52:37;;;;;;;2.42;0.10;;;;;;;11.81;73.23;99902.63;1640828;87;21100;-56
2021/09/25 06:55:06;;;;;;;0.65;0.10;;;;;;;11.81;73.61;99914.16;1673280;84;21005;-57
2021/09/25 06:57:33;;;;;;;0.65;0.10;;;;;;;11.95;73.52;99914.98;1662561;84;21051;-52
2021/09/25 06:59:59;;;;;;;1.55;0.10;;;;;;;12.15;73.00;99920.30;1661263;84;21105;-47
2021/09/25 07:02:25;;;;;;;2.40;0.20;;;;;;;12.37;72.09;99922.17;1664614;84;21033;-49
2021/09/25 07:04:52;;;;;;;0.90;0.10;;;;;;;12.53;71.96;99918.23;1608102;87;21162;-48
2021/09/25 07:07:18;;;;;;;2.20;0.10;;;;;;;12.68;71.07;99920.64;1618320;87;21074;-51
2021/09/25 07:09:45;;;;;;;0.65;0.10;;;;;;;12.78;69.47;99916.17;1675592;84;21157;-55
2021/09/25 07:12:11;;;;;;;1.00;0.10;;;;;;;12.80;69.10;99922.13;1672836;82;21092;-58
2021/09/25 07:14:38;;;;;;;0.85;0.10;;;;;;;12.81;68.48;99917.09;1654131;85;21057;-56
2021/09/25 07:17:04;;;;;;;0.65;0.30;;;;;;;12.80;69.12;99916.78;1645143;85;21178;-57
2021/09/25 07:19:30;;;;;;;1.30;0.10;;;;;;;12.89;68.63;99920.85;1634715;85;21189;-57
2021/09/25 07:21:58;;;;;;;1.05;0.20;;;;;;;12.93;68.54;99922.06;1633168;86;21060;-56
2021/09/25 07:24:23;;;;;;;0.25;0.10;;;;;;;12.95;68.56;99928.02;1681008;84;21097;-57
2021/09/25 07:26:52;;;;;;;0.42;0.20;;;;;;;12.87;68.27;99922.92;1677589;84;21049;-56
2021/09/25 07:29:18;;;;;;;3.72;0.13;;;;;;;12.78;68.57;99923.67;1658722;84;21080;-61
2021/09/25 07:31:46;;;;;;;1.72;0.10;;;;;;;12.73;68.82;99933.37;1661166;84;21049;-58
2021/09/25 07:34:12;;;;;;;0.75;0.10;;;;;;;12.67;68.99;99924.34;1691877;84;21334;-50
2021/09/25 07:36:38;;;;;;;0.42;0.13;;;;;;;12.63;69.31;99931.96;1664435;84;21029;-52
2021/09/25 07:39:04;;;;;;;2.02;0.20;;;;;;;12.68;69.98;99936.69;1675347;84;22587;-50
2021/09/25 07:41:30;;;;;;;0.60;0.10;;;;;;;12.74;69.35;99938.52;1672843;84;21492;-51
2021/09/25 07:43:56;;;;;;;3.47;0.30;;;;;;;12.72;69.59;99941.91;1668958;84;21085;-50
2021/09/25 07:46:25;;;;;;;1.07;0.75;;;;;;;12.73;69.73;99941.39;1659282;84;21156;-49
2021/09/25 07:48:53;;;;;;;1.10;0.28;;;;;;;12.76;69.62;99947.66;1665007;84;21005;-52
2021/09/25 07:51:19;;;;;;;1.15;0.20;;;;;;;12.73;69.30;99944.06;1673365;84;21595;-49
2021/09/25 07:53:45;;;;;;;1.30;0.45;;;;;;;12.65;69.23;99945.94;1675352;84;21192;-50
2021/09/25 07:56:12;;;;;;;1.92;0.35;;;;;;;12.64;69.72;99951.52;1674880;83;21047;-50
2021/09/25 07:58:38;;;;;;;0.95;0.55;;;;;;;12.71;69.44;99950.14;1686192;84;21052;-48
2021/09/25 08:01:04;;;;;;;3.52;0.23;;;;;;;12.77;69.13;99945.27;1692177;82;21132;-50
2021/09/25 08:03:31;;;;;;;3.12;0.35;;;;;;;12.01;69.16;99833.20;1696756;84;21025;-50
2021/09/25 08:05:57;;;;;;;0.93;0.30;;;;;;;12.70;69.17;99952.00;1693272;83;21537;-51
2021/09/25 08:08:23;;;;;;;2.40;0.42;;;;;;;12.73;69.89;99956.09;1689343;82;21607;-49
2021/09/25 08:10:49;;;;;;;;;;;;;;;12.72;69.26;99952.61;1694128;83;21032;-49
2021/09/25 08:13:15;;;;;;;3.10;0.57;;;;;;;12.73;69.87;99958.77;1700980;82;20469;-48
2021/09/25 08:15:42;;;;;;;2.33;0.57;;;;;;;12.75;69.82;99959.38;1697816;82;21068;-48
2021/09/25 08:18:08;;;;;;;0.95;0.55;;;;;;;12.85;69.74;99960.58;1687259;83;21709;-49
2021/09/25 08:20:34;;;;;;;2.40;0.40;;;;;;;12.96;69.36;99965.78;1697201;83;21123;-49
2021/09/25 08:23:01;;;;;;;2.60;0.30;;;;;;;12.96;68.77;99967.12;1699808;82;21024;-49
2021/09/25 08:25:28;;;;;;;0.50;0.37;;;;;;;12.95;69.06;99969.48;1697366;82;21060;-49
2021/09/25 08:27:54;;;;;;;3.90;1.02;;;;;;;12.95;68.93;99972.68;1687249;82;21029;-49
2021/09/25 08:30:24;;;;;;;3.22;0.62;;;;;;;12.91;69.21;99974.95;1700990;82;21622;-50
2021/09/25 08:32:48;;;;;;;3.40;0.78;;;;;;;12.92;69.34;99977.11;1702992;82;21083;-48
2021/09/25 08:35:14;;;;;;;1.10;0.37;;;;;;;12.97;69.29;99990.67;1708526;82;21013;-49
2021/09/25 08:37:40;;;;;;;1.47;0.35;;;;;;;13.02;68.81;99980.16;1706323;83;21009;-49
2021/09/25 08:40:10;;;;;;;;;;;;;;;13.07;69.02;99983.52;1708613;82;21053;-48
2021/09/25 08:42:36;;;;;;;0.93;0.70;;;;;;;13.09;68.62;99989.48;1699265;83;20156;-49
2021/09/25 08:45:05;;;;;;;1.80;0.40;;;;;;;13.08;68.99;99998.03;1711646;83;21032;-48
2021/09/25 08:47:34;;;;;;;3.02;0.90;;;;;;;13.14;69.35;99994.50;1697304;83;21076;-50
2021/09/25 08:50:01;;;;;;;8.45;0.50;;;;;;;13.24;69.07;99998.05;1689725;83;21025;-48
2021/09/25 08:52:30;;;;;;;1.20;0.88;;;;;;;13.38;68.36;99994.83;1698356;82;21454;-49
2021/09/25 08:54:56;;;;;;;3.75;0.80;;;;;;;13.51;68.27;100004.64;1693696;82;21029;-48
2021/09/25 08:57:22;;;;;;;1.72;0.70;;;;;;;13.61;68.29;99997.75;1707013;82;21065;-50
2021/09/25 08:59:48;;;;;;;5.65;0.98;;;;;;;13.67;68.15;100004.09;1706841;83;21087;-49
2021/09/25 09:02:19;;;;;;;1.85;1.05;;;;;;;13.72;67.62;100006.14;1693047;82;21066;-50
2021/09/25 09:04:53;;;;;;;4.42;2.15;;;;;;;13.77;67.59;100004.98;1703547;82;20951;-51
2021/09/25 09:07:24;;;;;;;2.30;1.10;;;;;;;13.80;66.68;100004.00;1706464;83;21116;-51
2021/09/25 09:09:50;;;;;;;2.37;0.80;;;;;;;13.82;66.61;100009.98;1701931;82;21068;-51
2021/09/25 09:12:28;;;;;;;64.03;4.12;;;;;;;13.87;66.62;100007.98;1698703;83;21020;-49
2021/09/25 09:14:56;;;;;;;4.30;0.78;;;;;;;13.99;66.92;100005.41;1692216;82;21467;-53
2021/09/25 09:17:30;;;;;;;1.07;0.50;;;;;;;14.12;66.26;100010.66;1698615;84;21040;-50
2021/09/25 09:19:58;;;;;;;2.33;0.85;;;;;;;14.17;64.78;100002.78;1698119;82;21080;-51
2021/09/25 09:22:25;;;;;;;2.70;0.40;;;;;;;14.14;65.17;100002.40;1697118;84;21013;-52
2021/09/25 09:24:55;;;;;;;2.95;0.90;;;;;;;14.15;65.04;99994.67;1703413;82;21573;-51
2021/09/25 09:27:26;;;;;;;1.45;0.65;;;;;;;14.18;65.29;99995.55;1706458;84;21534;-51
2021/09/25 09:30:14;;;;;;;4.42;0.60;;;;;;;14.18;64.80;99993.72;1673581;84;21634;-52
2021/09/25 09:32:47;;;;;;;4.33;0.40;;;;;;;14.15;64.42;100001.38;1706840;82;21126;-52
2021/09/25 09:35:20;;;;;;;2.20;0.42;;;;;;;14.11;64.89;99998.31;1700376;82;21144;-53
2021/09/25 09:37:56;;;;;;;10.53;0.68;;;;;;;14.13;65.06;100003.45;1685149;83;21064;-51
2021/09/25 09:40:23;;;;;;;6.37;0.40;;;;;;;14.11;64.75;99993.45;1698948;82;21026;-53
2021/09/25 09:42:52;;;;;;;1.52;0.30;;;;;;;14.18;64.82;99993.72;1697527;82;21181;-51
2021/09/25 09:45:27;;;;;;;2.50;0.37;;;;;;;14.27;64.58;99988.06;1695257;82;21058;-53
2021/09/25 09:47:57;;;;;;;2.10;0.53;;;;;;;14.29;64.39;99992.67;1700130;83;21089;-52
2021/09/25 09:50:24;;;;;;;2.62;0.60;;;;;;;14.28;64.07;99985.66;1701775;82;21133;-53
2021/09/25 09:52:51;;;;;;;1.55;0.45;;;;;;;14.25;64.05;99991.48;1688475;82;21029;-52
2021/09/25 09:55:25;;;;;;;2.55;0.55;;;;;;;14.26;64.68;99994.45;1685827;81;20981;-52
2021/09/25 09:58:05;;;;;;;1.82;0.20;;;;;;;14.28;64.58;99993.70;1669906;84;21148;-54
2021/09/25 10:00:35;;;;;;;4.17;0.42;;;;;;;14.33;64.68;99991.19;1672771;84;21585;-54
2021/09/25 10:03:02;;;;;;;3.25;0.70;;;;;;;14.35;63.96;99987.76;1670914;84;21033;-53
2021/09/25 10:05:29;;;;;;;2.05;0.62;;;;;;;14.30;64.15;99980.40;1661926;84;21032;-53
2021/09/25 10:07:56;;;;;;;2.10;0.30;;;;;;;14.29;64.22;99995.36;1674088;84;21571;-51
2021/09/25 10:10:23;;;;;;;5.10;0.65;;;;;;;14.34;64.28;99987.48;1653538;85;21566;-52
2021/09/25 10:12:49;;;;;;;2.75;0.50;;;;;;;14.41;64.61;99987.70;1660412;84;21163;-51
2021/09/25 10:15:16;;;;;;;3.08;0.20;;;;;;;14.48;64.82;99987.63;1668745;84;21049;-53
2021/09/25 10:17:43;;;;;;;2.10;0.80;;;;;;;14.49;64.50;99996.51;1682081;84;21155;-53
2021/09/25 10:20:11;;;;;;;6.53;0.75;;;;;;;14.51;64.37;99990.40;1676224;84;21092;-51
2021/09/25 10:22:39;;;;;;;1.75;0.75;;;;;;;14.55;64.79;99992.40;1667735;84;21498;-51
2021/09/25 10:25:10;;;;;;;2.37;0.20;;;;;;;14.58;64.29;99987.97;1664724;84;20985;-53
2021/09/25 10:27:41;;;;;;;0.37;0.37;;;;;;;14.63;63.73;99990.50;1669357;84;21139;-50
2021/09/25 10:30:10;;;;;;;1.75;0.42;;;;;;;14.67;63.34;99990.34;1675917;84;21017;-52
2021/09/25 10:32:49;;;;;;;0.95;0.20;;;;;;;14.72;62.75;99979.25;1668139;84;21693;-52
2021/09/25 10:35:21;;;;;;;1.45;0.20;;;;;;;14.74;62.44;99975.00;1689134;84;21073;-52
2021/09/25 10:37:54;;;;;;;2.90;0.57;;;;;;;14.72;62.15;99979.25;1667282;84;21024;-52
2021/09/25 10:40:31;;;;;;;1.65;0.20;;;;;;;14.71;62.23;99984.83;1674738;84;21545;-53
2021/09/25 10:43:15;;;;;;;1.82;0.45;;;;;;;14.73;62.85;99977.38;1670789;84;21052;-52
2021/09/25 10:45:42;;;;;;;4.67;0.42;;;;;;;14.75;63.04;99973.97;1655743;84;21147;-52
2021/09/25 10:48:26;;;;;;;3.27;0.50;;;;;;;14.89;63.09;99962.02;1664504;84;21067;-51
2021/09/25 10:51:08;;;;;;;3.98;0.50;;;;;;;15.10;62.61;99961.23;1671307;84;21532;-52
2021/09/25 10:53:40;;;;;;;2.87;0.50;;;;;;;15.27;62.30;99954.70;1672804;84;21052;-52
2021/09/25 10:56:20;;;;;;;1.00;0.30;;;;;;;15.38;61.85;99953.92;1675738;83;21024;-52
2021/09/25 10:59:04;;;;;;;8.13;0.70;;;;;;;15.52;61.10;99959.40;1684920;83;21203;-54
2021/09/25 11:01:34;;;;;;;6.97;0.78;;;;;;;15.60;60.30;99958.25;1679655;84;21044;-51
2021/09/25 11:04:12;;;;;;;11.60;1.87;;;;;;;15.67;60.02;99959.47;1676051;84;21052;-54
2021/09/25 11:06:52;;;;;;;2.25;0.37;;;;;;;15.79;60.03;99967.59;1660293;84;21037;-53
2021/09/25 11:09:36;;;;;;;4.30;1.98;;;;;;;15.88;58.96;99960.30;1660306;85;21097;-53
2021/09/25 11:12:11;;;;;;;3.90;0.70;;;;;;;15.93;57.87;99963.63;1612635;84;21106;-54
2021/09/25 11:14:52;;;;;;;3.40;0.37;;;;;;;15.94;57.27;99959.90;1669193;84;21094;-53
2021/09/25 11:17:25;;;;;;;3.50;0.60;;;;;;;15.94;56.80;99965.27;1660007;84;21586;-54
2021/09/25 11:19:57;;;;;;;1.75;0.30;;;;;;;15.86;55.99;99970.97;1658781;84;21034;-53
2021/09/25 11:22:36;;;;;;;1.65;0.40;;;;;;;15.78;56.61;99971.33;1664257;84;21570;-52
2021/09/25 11:25:11;;;;;;;3.65;0.50;;;;;;;15.69;57.26;99967.61;1673804;84;21143;-53
2021/09/25 11:27:41;;;;;;;5.30;0.68;;;;;;;15.63;58.24;99968.51;1670250;84;21078;-53
2021/09/25 11:30:16;;;;;;;1.52;0.30;;;;;;;15.62;58.25;99978.17;1674186;84;21075;-53
2021/09/25 11:32:56;;;;;;;2.70;1.02;;;;;;;15.64;58.35;99968.81;1664640;84;21107;-53
2021/09/25 11:35:29;;;;;;;5.33;1.10;;;;;;;15.71;58.17;99968.73;1631349;84;21129;-53
2021/09/25 11:38:03;;;;;;;2.20;0.42;;;;;;;15.76;58.26;99967.02;1669481;84;21094;-52
2021/09/25 11:40:35;;;;;;;1.92;0.60;;;;;;;15.84;57.58;99971.73;1660164;84;21132;-55